aviador You're here:

OIAM Decoded Metar

BANDAR MAHSHAHR in IRAN
Report Time2017-11-22 21:00:00
UTC Time2017-11-22 21:47:40
Flight Rules ifr IFR
Wind100° at 06 kt
W.Decomp.*RWY 13: 5.0 kt HW 3.3 kt LCW
W.Rank100° ranks 19
Current wind is below 100° avg. (8.4)
Visibility4000 m
Phenomena:Mist
Clouds:Scattered CB 030 Hf
Scattered 040 Hf
Expected CloudBase > 1,200 ft AGL from Temp-Dew spread
CeilingNone
Temp17°C (ISA +2)
Dew Point14°C (83% RH)
AAT16.1°C
QNH1012 hPa
Density Alt499 ft
Elevation13 ft
Report Wrong Elevation
Raw Report
METAR OIAM 222100Z 10006KT 4000 BR SCT030CB SCT040 17/14 Q1012=

Extra information for OIAM:More info

Metar Taf Metar & Taf Last 4 Metars F.Rules Stats Wind Profile Meteogram Temp Stats Airport Information Weather charts Add Link Nearby VenuesMetar ALERT Operation Metar Decoded Social comments